Terminal Aerodrome Forecast
Issued by NWS Twin Cities, MN

Home | Current Version | Previous Version | Graphics & Text | Print | Product List | Glossary On
Versions: 1 2 3 4 5 6 7 8 9 10 11 12 13 14 15 16 17 18 19
000
FTUS43 KMPX 012300
TAFSTC
TAF
KSTC 012334Z 0200/0224 27006KT P6SM VCSH SCT050 BKN100
     FM020400 28003KT P6SM SCT050 BKN090
     FM021600 26010KT P6SM SCT100=

USA.gov is the U.S. government's official web portal to all federal, state and local government web resources and services.